sensor_id;sensor_type;location;lat;lon;timestamp;temperature;humidity
20827;DHT22;10574;52.508;13.236;2023-01-19T00:01:25;-1.80;99.90
20827;DHT22;10574;52.508;13.236;2023-01-19T00:03:53;-1.90;99.90
20827;DHT22;10574;52.508;13.236;2023-01-19T00:06:20;-1.90;99.90
20827;DHT22;10574;52.508;13.236;2023-01-19T00:08:48;-1.80;99.90
20827;DHT22;10574;52.508;13.236;2023-01-19T00:11:16;-1.90;99.90
20827;DHT22;10574;52.508;13.236;2023-01-19T00:13:44;-1.90;99.90
20827;DHT22;10574;52.508;13.236;2023-01-19T00:16:14;-1.90;99.90
20827;DHT22;10574;52.508;13.236;2023-01-19T00:18:47;-2.00;99.90
20827;DHT22;10574;52.508;13.236;2023-01-19T00:21:16;-2.10;99.90
20827;DHT22;10574;52.508;13.236;2023-01-19T00:23:44;-2.10;99.90
20827;DHT22;10574;52.508;13.236;2023-01-19T00:26:14;-2.20;99.90
20827;DHT22;10574;52.508;13.236;2023-01-19T00:28:43;-2.20;99.90
20827;DHT22;10574;52.508;13.236;2023-01-19T00:31:11;-2.20;99.90
20827;DHT22;10574;52.508;13.236;2023-01-19T00:33:39;-2.10;99.90
20827;DHT22;10574;52.508;13.236;2023-01-19T00:36:08;-2.10;99.90
20827;DHT22;10574;52.508;13.236;2023-01-19T00:38:36;-2.10;99.90
20827;DHT22;10574;52.508;13.236;2023-01-19T00:41:04;-2.10;99.90
20827;DHT22;10574;52.508;13.236;2023-01-19T00:43:32;-2.10;99.90
20827;DHT22;10574;52.508;13.236;2023-01-19T00:46:00;-2.00;99.90
20827;DHT22;10574;52.508;13.236;2023-01-19T00:48:28;-2.00;99.90
20827;DHT22;10574;52.508;13.236;2023-01-19T00:50:56;-2.00;99.90
20827;DHT22;10574;52.508;13.236;2023-01-19T00:53:25;-2.00;99.90
20827;DHT22;10574;52.508;13.236;2023-01-19T00:55:55;-2.00;99.90
20827;DHT22;10574;52.508;13.236;2023-01-19T00:58:22;-2.00;99.90
20827;DHT22;10574;52.508;13.236;2023-01-19T01:00:52;-2.00;99.90
20827;DHT22;10574;52.508;13.236;2023-01-19T01:03:21;-2.00;99.90
20827;DHT22;10574;52.508;13.236;2023-01-19T01:05:51;-2.10;99.90
20827;DHT22;10574;52.508;13.236;2023-01-19T01:08:19;-2.20;99.90
20827;DHT22;10574;52.508;13.236;2023-01-19T01:10:46;-2.20;99.90
20827;DHT22;10574;52.508;13.236;2023-01-19T01:13:14;-2.20;99.90
20827;DHT22;10574;52.508;13.236;2023-01-19T01:15:42;-2.20;99.90
20827;DHT22;10574;52.508;13.236;2023-01-19T01:18:10;-2.30;99.90
20827;DHT22;10574;52.508;13.236;2023-01-19T01:20:38;-2.20;99.90
20827;DHT22;10574;52.508;13.236;2023-01-19T01:23:06;-2.20;99.90
20827;DHT22;10574;52.508;13.236;2023-01-19T01:25:34;-2.20;99.90
20827;DHT22;10574;52.508;13.236;2023-01-19T01:28:04;-2.20;99.90
20827;DHT22;10574;52.508;13.236;2023-01-19T01:30:35;-2.30;99.90
20827;DHT22;10574;52.508;13.236;2023-01-19T01:33:04;-2.30;99.90
20827;DHT22;10574;52.508;13.236;2023-01-19T01:35:32;-2.30;99.90
20827;DHT22;10574;52.508;13.236;2023-01-19T01:38:00;-2.30;99.90
20827;DHT22;10574;52.508;13.236;2023-01-19T01:40:28;-2.40;99.90
20827;DHT22;10574;52.508;13.236;2023-01-19T01:42:56;-2.30;99.90
20827;DHT22;10574;52.508;13.236;2023-01-19T01:45:32;-2.30;99.90
20827;DHT22;10574;52.508;13.236;2023-01-19T01:48:08;-2.40;99.90
20827;DHT22;10574;52.508;13.236;2023-01-19T01:50:33;-2.40;99.90
20827;DHT22;10574;52.508;13.236;2023-01-19T01:53:12;-2.40;99.90
20827;DHT22;10574;52.508;13.236;2023-01-19T01:55:44;-2.50;99.90
20827;DHT22;10574;52.508;13.236;2023-01-19T01:58:12;-2.50;99.90
20827;DHT22;10574;52.508;13.236;2023-01-19T02:00:40;-2.50;99.90
20827;DHT22;10574;52.508;13.236;2023-01-19T02:03:26;-2.50;99.90
20827;DHT22;10574;52.508;13.236;2023-01-19T02:05:56;-2.50;99.90
20827;DHT22;10574;52.508;13.236;2023-01-19T02:08:27;-2.60;99.90
20827;DHT22;10574;52.508;13.236;2023-01-19T02:11:14;-2.60;99.90
20827;DHT22;10574;52.508;13.236;2023-01-19T02:14:02;-2.60;99.90
20827;DHT22;10574;52.508;13.236;2023-01-19T02:16:30;-2.60;99.90
20827;DHT22;10574;52.508;13.236;2023-01-19T02:18:58;-2.60;99.90
20827;DHT22;10574;52.508;13.236;2023-01-19T02:21:40;-2.70;99.90
20827;DHT22;10574;52.508;13.236;2023-01-19T02:24:08;-2.70;99.90
20827;DHT22;10574;52.508;13.236;2023-01-19T02:26:39;-2.70;99.90
20827;DHT22;10574;52.508;13.236;2023-01-19T02:29:10;-2.70;99.90
20827;DHT22;10574;52.508;13.236;2023-01-19T02:31:39;-2.70;99.90
20827;DHT22;10574;52.508;13.236;2023-01-19T02:34:09;-2.70;99.90
20827;DHT22;10574;52.508;13.236;2023-01-19T02:36:56;-2.80;99.90
20827;DHT22;10574;52.508;13.236;2023-01-19T02:39:44;-2.70;99.90
20827;DHT22;10574;52.508;13.236;2023-01-19T02:41:54;-2.70;99.90
20827;DHT22;10574;52.508;13.236;2023-01-19T02:44:22;-2.70;99.90
20827;DHT22;10574;52.508;13.236;2023-01-19T02:46:52;-2.70;99.90
20827;DHT22;10574;52.508;13.236;2023-01-19T02:49:20;-2.70;99.90
20827;DHT22;10574;52.508;13.236;2023-01-19T02:51:48;-2.70;99.90
20827;DHT22;10574;52.508;13.236;2023-01-19T02:54:32;-2.70;99.90
20827;DHT22;10574;52.508;13.236;2023-01-19T02:57:08;-2.70;99.90
20827;DHT22;10574;52.508;13.236;2023-01-19T03:02:44;-2.70;99.90
20827;DHT22;10574;52.508;13.236;2023-01-19T03:05:31;-2.80;99.90
20827;DHT22;10574;52.508;13.236;2023-01-19T03:08:18;-2.80;99.90
20827;DHT22;10574;52.508;13.236;2023-01-19T03:10:53;-2.80;99.90
20827;DHT22;10574;52.508;13.236;2023-01-19T03:16:04;-2.80;99.90
20827;DHT22;10574;52.508;13.236;2023-01-19T03:18:34;-2.90;99.90
20827;DHT22;10574;52.508;13.236;2023-01-19T03:21:05;-2.80;99.90
20827;DHT22;10574;52.508;13.236;2023-01-19T03:23:35;-2.90;99.90
20827;DHT22;10574;52.508;13.236;2023-01-19T03:26:09;-2.90;99.90
20827;DHT22;10574;52.508;13.236;2023-01-19T03:28:41;-2.90;99.90
20827;DHT22;10574;52.508;13.236;2023-01-19T03:31:16;-2.90;99.90
20827;DHT22;10574;52.508;13.236;2023-01-19T03:33:46;-3.00;99.90
20827;DHT22;10574;52.508;13.236;2023-01-19T03:36:22;-3.00;99.90
20827;DHT22;10574;52.508;13.236;2023-01-19T03:38:47;-3.00;99.90
20827;DHT22;10574;52.508;13.236;2023-01-19T03:41:17;-3.00;99.90
20827;DHT22;10574;52.508;13.236;2023-01-19T03:43:47;-3.00;99.90
20827;DHT22;10574;52.508;13.236;2023-01-19T03:46:17;-3.00;99.90
20827;DHT22;10574;52.508;13.236;2023-01-19T03:48:46;-3.10;99.90
20827;DHT22;10574;52.508;13.236;2023-01-19T03:51:16;-3.10;99.90
20827;DHT22;10574;52.508;13.236;2023-01-19T03:53:45;-3.10;99.90
20827;DHT22;10574;52.508;13.236;2023-01-19T03:56:23;-3.10;99.90
20827;DHT22;10574;52.508;13.236;2023-01-19T03:58:54;-3.10;99.90
20827;DHT22;10574;52.508;13.236;2023-01-19T04:01:21;-3.10;99.90
20827;DHT22;10574;52.508;13.236;2023-01-19T04:03:49;-3.10;99.90
20827;DHT22;10574;52.508;13.236;2023-01-19T04:06:19;-3.10;99.90
20827;DHT22;10574;52.508;13.236;2023-01-19T04:08:50;-3.20;99.90
20827;DHT22;10574;52.508;13.236;2023-01-19T04:11:18;-3.20;99.90
20827;DHT22;10574;52.508;13.236;2023-01-19T04:13:45;-3.20;99.90
20827;DHT22;10574;52.508;13.236;2023-01-19T04:16:13;-3.20;99.90
20827;DHT22;10574;52.508;13.236;2023-01-19T04:18:43;-3.20;99.90
20827;DHT22;10574;52.508;13.236;2023-01-19T04:21:10;-3.20;99.90
20827;DHT22;10574;52.508;13.236;2023-01-19T04:23:38;-3.20;99.90
20827;DHT22;10574;52.508;13.236;2023-01-19T04:26:07;-3.20;99.90
20827;DHT22;10574;52.508;13.236;2023-01-19T04:28:35;-3.20;99.90
20827;DHT22;10574;52.508;13.236;2023-01-19T04:31:05;-3.20;99.90
20827;DHT22;10574;52.508;13.236;2023-01-19T04:33:33;-3.20;99.90
20827;DHT22;10574;52.508;13.236;2023-01-19T04:36:01;-3.20;99.90
20827;DHT22;10574;52.508;13.236;2023-01-19T04:38:29;-3.20;99.90
20827;DHT22;10574;52.508;13.236;2023-01-19T04:40:57;-3.20;99.90
20827;DHT22;10574;52.508;13.236;2023-01-19T04:43:25;-3.20;99.90
20827;DHT22;10574;52.508;13.236;2023-01-19T04:45:53;-3.20;99.90
20827;DHT22;10574;52.508;13.236;2023-01-19T04:48:21;-3.10;99.90
20827;DHT22;10574;52.508;13.236;2023-01-19T04:50:50;-3.20;99.90
20827;DHT22;10574;52.508;13.236;2023-01-19T04:53:18;-3.20;99.90
20827;DHT22;10574;52.508;13.236;2023-01-19T04:55:46;-3.20;99.90
20827;DHT22;10574;52.508;13.236;2023-01-19T04:58:14;-3.20;99.90
20827;DHT22;10574;52.508;13.236;2023-01-19T05:00:42;-3.30;99.90
20827;DHT22;10574;52.508;13.236;2023-01-19T05:03:10;-3.20;99.90
20827;DHT22;10574;52.508;13.236;2023-01-19T05:05:38;-3.20;99.90
20827;DHT22;10574;52.508;13.236;2023-01-19T05:08:06;-3.20;99.90
20827;DHT22;10574;52.508;13.236;2023-01-19T05:10:34;-3.30;99.90
20827;DHT22;10574;52.508;13.236;2023-01-19T05:13:02;-3.20;99.90
20827;DHT22;10574;52.508;13.236;2023-01-19T05:15:31;-3.20;99.90
20827;DHT22;10574;52.508;13.236;2023-01-19T05:17:58;-3.20;99.90
20827;DHT22;10574;52.508;13.236;2023-01-19T05:20:31;-3.20;99.90
20827;DHT22;10574;52.508;13.236;2023-01-19T05:22:59;-3.20;99.90
20827;DHT22;10574;52.508;13.236;2023-01-19T05:25:27;-3.20;99.90
20827;DHT22;10574;52.508;13.236;2023-01-19T05:27:55;-3.20;99.90
20827;DHT22;10574;52.508;13.236;2023-01-19T05:30:23;-3.10;99.90
20827;DHT22;10574;52.508;13.236;2023-01-19T05:32:51;-3.10;99.90
20827;DHT22;10574;52.508;13.236;2023-01-19T05:35:19;-3.20;99.90
20827;DHT22;10574;52.508;13.236;2023-01-19T05:37:48;-3.20;99.90
20827;DHT22;10574;52.508;13.236;2023-01-19T05:40:16;-3.20;99.90
20827;DHT22;10574;52.508;13.236;2023-01-19T05:42:44;-3.20;99.90
20827;DHT22;10574;52.508;13.236;2023-01-19T05:45:12;-3.20;99.90
20827;DHT22;10574;52.508;13.236;2023-01-19T05:47:39;-3.20;99.90
20827;DHT22;10574;52.508;13.236;2023-01-19T05:50:08;-3.20;99.90
20827;DHT22;10574;52.508;13.236;2023-01-19T05:52:35;-3.10;99.90
20827;DHT22;10574;52.508;13.236;2023-01-19T05:55:04;-3.10;99.90
20827;DHT22;10574;52.508;13.236;2023-01-19T05:57:32;-3.10;99.90
20827;DHT22;10574;52.508;13.236;2023-01-19T06:00:00;-3.10;99.90
20827;DHT22;10574;52.508;13.236;2023-01-19T06:02:28;-3.10;99.90
20827;DHT22;10574;52.508;13.236;2023-01-19T06:04:56;-3.10;99.90
20827;DHT22;10574;52.508;13.236;2023-01-19T06:07:24;-3.10;99.90
20827;DHT22;10574;52.508;13.236;2023-01-19T06:09:52;-3.10;99.90
20827;DHT22;10574;52.508;13.236;2023-01-19T06:12:20;-3.10;99.90
20827;DHT22;10574;52.508;13.236;2023-01-19T06:14:52;-3.10;99.90
20827;DHT22;10574;52.508;13.236;2023-01-19T06:17:19;-3.10;99.90
20827;DHT22;10574;52.508;13.236;2023-01-19T06:19:51;-3.10;99.90
20827;DHT22;10574;52.508;13.236;2023-01-19T06:22:19;-3.10;99.90
20827;DHT22;10574;52.508;13.236;2023-01-19T06:24:47;-3.10;99.90
20827;DHT22;10574;52.508;13.236;2023-01-19T06:27:15;-3.10;99.90
20827;DHT22;10574;52.508;13.236;2023-01-19T06:29:43;-3.10;99.90
20827;DHT22;10574;52.508;13.236;2023-01-19T06:32:11;-3.10;99.90
20827;DHT22;10574;52.508;13.236;2023-01-19T06:34:42;-3.10;99.90
20827;DHT22;10574;52.508;13.236;2023-01-19T06:37:15;-3.20;99.90
20827;DHT22;10574;52.508;13.236;2023-01-19T06:39:43;-3.20;99.90
20827;DHT22;10574;52.508;13.236;2023-01-19T06:42:11;-3.20;99.90
20827;DHT22;10574;52.508;13.236;2023-01-19T06:44:39;-3.20;99.90
20827;DHT22;10574;52.508;13.236;2023-01-19T06:47:08;-3.20;99.90
20827;DHT22;10574;52.508;13.236;2023-01-19T06:49:36;-3.20;99.90
20827;DHT22;10574;52.508;13.236;2023-01-19T06:52:04;-3.20;99.90
20827;DHT22;10574;52.508;13.236;2023-01-19T06:54:32;-3.20;99.90
20827;DHT22;10574;52.508;13.236;2023-01-19T06:57:19;-3.20;99.90
20827;DHT22;10574;52.508;13.236;2023-01-19T06:59:47;-3.20;99.90
20827;DHT22;10574;52.508;13.236;2023-01-19T07:02:15;-3.30;99.90
20827;DHT22;10574;52.508;13.236;2023-01-19T07:04:44;-3.30;99.90
20827;DHT22;10574;52.508;13.236;2023-01-19T07:07:12;-3.30;99.90
20827;DHT22;10574;52.508;13.236;2023-01-19T07:09:39;-3.30;99.90
20827;DHT22;10574;52.508;13.236;2023-01-19T07:12:07;-3.30;99.90
20827;DHT22;10574;52.508;13.236;2023-01-19T07:14:35;-3.20;99.90
20827;DHT22;10574;52.508;13.236;2023-01-19T07:17:03;-3.30;99.90
20827;DHT22;10574;52.508;13.236;2023-01-19T07:19:31;-3.30;99.90
20827;DHT22;10574;52.508;13.236;2023-01-19T07:22:00;-3.30;99.90
20827;DHT22;10574;52.508;13.236;2023-01-19T07:24:28;-3.30;99.90
20827;DHT22;10574;52.508;13.236;2023-01-19T07:26:56;-3.20;99.90
20827;DHT22;10574;52.508;13.236;2023-01-19T07:29:25;-3.30;99.90
20827;DHT22;10574;52.508;13.236;2023-01-19T07:31:53;-3.20;99.90
20827;DHT22;10574;52.508;13.236;2023-01-19T07:34:23;-3.20;99.90
20827;DHT22;10574;52.508;13.236;2023-01-19T07:36:51;-3.20;99.90
20827;DHT22;10574;52.508;13.236;2023-01-19T07:39:19;-3.30;99.90
20827;DHT22;10574;52.508;13.236;2023-01-19T07:41:48;-3.20;99.90
20827;DHT22;10574;52.508;13.236;2023-01-19T07:44:16;-3.20;99.90
20827;DHT22;10574;52.508;13.236;2023-01-19T07:46:44;-3.20;99.90
20827;DHT22;10574;52.508;13.236;2023-01-19T07:49:12;-3.20;99.90
20827;DHT22;10574;52.508;13.236;2023-01-19T07:51:40;-3.20;99.90
20827;DHT22;10574;52.508;13.236;2023-01-19T07:54:09;-3.20;99.90
20827;DHT22;10574;52.508;13.236;2023-01-19T07:56:37;-3.10;99.90
20827;DHT22;10574;52.508;13.236;2023-01-19T07:59:06;-3.00;99.90
20827;DHT22;10574;52.508;13.236;2023-01-19T08:01:35;-2.90;99.90
20827;DHT22;10574;52.508;13.236;2023-01-19T08:04:03;-2.90;99.90
20827;DHT22;10574;52.508;13.236;2023-01-19T08:06:36;-2.90;99.90
20827;DHT22;10574;52.508;13.236;2023-01-19T08:09:05;-2.90;99.90
20827;DHT22;10574;52.508;13.236;2023-01-19T08:11:33;-2.80;99.90
20827;DHT22;10574;52.508;13.236;2023-01-19T08:14:02;-2.70;99.90
20827;DHT22;10574;52.508;13.236;2023-01-19T08:16:30;-2.70;99.90
20827;DHT22;10574;52.508;13.236;2023-01-19T08:18:58;-2.60;99.90
20827;DHT22;10574;52.508;13.236;2023-01-19T08:21:26;-2.50;99.90
20827;DHT22;10574;52.508;13.236;2023-01-19T08:23:55;-2.40;99.90
20827;DHT22;10574;52.508;13.236;2023-01-19T08:26:32;-2.40;99.90
20827;DHT22;10574;52.508;13.236;2023-01-19T08:29:05;-2.50;99.90
20827;DHT22;10574;52.508;13.236;2023-01-19T08:31:33;-2.50;99.90
20827;DHT22;10574;52.508;13.236;2023-01-19T08:34:01;-2.40;99.90
20827;DHT22;10574;52.508;13.236;2023-01-19T08:36:29;-2.40;99.90
20827;DHT22;10574;52.508;13.236;2023-01-19T08:38:57;-2.30;99.90
20827;DHT22;10574;52.508;13.236;2023-01-19T08:41:25;-2.10;99.90
20827;DHT22;10574;52.508;13.236;2023-01-19T08:43:53;-2.00;99.90
20827;DHT22;10574;52.508;13.236;2023-01-19T08:46:21;-1.90;99.90
20827;DHT22;10574;52.508;13.236;2023-01-19T08:48:49;-1.90;99.90
20827;DHT22;10574;52.508;13.236;2023-01-19T08:51:17;-1.90;99.90
20827;DHT22;10574;52.508;13.236;2023-01-19T08:53:46;-1.80;99.90
20827;DHT22;10574;52.508;13.236;2023-01-19T08:56:14;-1.80;99.90
20827;DHT22;10574;52.508;13.236;2023-01-19T08:58:43;-1.70;99.90
20827;DHT22;10574;52.508;13.236;2023-01-19T09:01:12;-1.70;99.90
20827;DHT22;10574;52.508;13.236;2023-01-19T09:03:43;-1.70;99.90
20827;DHT22;10574;52.508;13.236;2023-01-19T09:06:12;-1.70;99.90
20827;DHT22;10574;52.508;13.236;2023-01-19T09:08:43;-1.70;99.90
20827;DHT22;10574;52.508;13.236;2023-01-19T09:11:12;-1.60;99.90
20827;DHT22;10574;52.508;13.236;2023-01-19T09:13:40;-1.50;99.90
20827;DHT22;10574;52.508;13.236;2023-01-19T09:16:10;-1.50;99.90
20827;DHT22;10574;52.508;13.236;2023-01-19T09:18:40;-1.40;99.90
20827;DHT22;10574;52.508;13.236;2023-01-19T09:21:08;-1.40;99.90
20827;DHT22;10574;52.508;13.236;2023-01-19T09:23:36;-1.30;99.90
20827;DHT22;10574;52.508;13.236;2023-01-19T09:26:05;-1.10;99.90
20827;DHT22;10574;52.508;13.236;2023-01-19T09:28:33;-1.00;99.90
20827;DHT22;10574;52.508;13.236;2023-01-19T09:31:05;-1.00;99.90
20827;DHT22;10574;52.508;13.236;2023-01-19T09:33:34;-1.00;99.90
20827;DHT22;10574;52.508;13.236;2023-01-19T09:36:03;-0.90;99.90
20827;DHT22;10574;52.508;13.236;2023-01-19T09:38:31;-0.80;99.90
20827;DHT22;10574;52.508;13.236;2023-01-19T09:41:00;-0.80;99.90
20827;DHT22;10574;52.508;13.236;2023-01-19T09:43:50;-0.70;99.90
20827;DHT22;10574;52.508;13.236;2023-01-19T09:46:35;-0.60;99.90
20827;DHT22;10574;52.508;13.236;2023-01-19T09:49:12;-0.40;99.90
20827;DHT22;10574;52.508;13.236;2023-01-19T09:51:43;-0.30;99.90
20827;DHT22;10574;52.508;13.236;2023-01-19T09:54:23;-0.30;99.90
20827;DHT22;10574;52.508;13.236;2023-01-19T09:56:53;-0.10;99.90
20827;DHT22;10574;52.508;13.236;2023-01-19T09:59:25;0.00;99.90
20827;DHT22;10574;52.508;13.236;2023-01-19T10:02:16;0.00;99.90
20827;DHT22;10574;52.508;13.236;2023-01-19T10:05:04;0.10;99.90
20827;DHT22;10574;52.508;13.236;2023-01-19T10:10:24;0.10;99.90
20827;DHT22;10574;52.508;13.236;2023-01-19T10:16:03;0.30;99.90
20827;DHT22;10574;52.508;13.236;2023-01-19T10:18:48;0.30;99.90
20827;DHT22;10574;52.508;13.236;2023-01-19T10:26:37;0.40;99.90
20827;DHT22;10574;52.508;13.236;2023-01-19T10:29:11;0.50;99.90
20827;DHT22;10574;52.508;13.236;2023-01-19T10:31:37;0.60;99.90
20827;DHT22;10574;52.508;13.236;2023-01-19T10:34:08;0.70;99.90
20827;DHT22;10574;52.508;13.236;2023-01-19T10:36:37;0.80;99.90
20827;DHT22;10574;52.508;13.236;2023-01-19T10:39:08;0.80;99.90
20827;DHT22;10574;52.508;13.236;2023-01-19T10:41:51;1.00;99.90
20827;DHT22;10574;52.508;13.236;2023-01-19T10:44:25;1.10;99.90
20827;DHT22;10574;52.508;13.236;2023-01-19T10:46:55;1.10;99.90
20827;DHT22;10574;52.508;13.236;2023-01-19T10:49:35;1.20;99.90
20827;DHT22;10574;52.508;13.236;2023-01-19T10:52:05;1.30;99.90
20827;DHT22;10574;52.508;13.236;2023-01-19T10:54:35;1.40;99.90
20827;DHT22;10574;52.508;13.236;2023-01-19T10:57:06;1.40;99.90
20827;DHT22;10574;52.508;13.236;2023-01-19T10:59:48;1.50;99.90
20827;DHT22;10574;52.508;13.236;2023-01-19T11:04:55;1.50;99.90
20827;DHT22;10574;52.508;13.236;2023-01-19T11:07:31;1.40;99.90
20827;DHT22;10574;52.508;13.236;2023-01-19T11:13:08;1.20;99.90
20827;DHT22;10574;52.508;13.236;2023-01-19T11:15:42;1.30;99.90
20827;DHT22;10574;52.508;13.236;2023-01-19T11:18:30;1.40;99.90
20827;DHT22;10574;52.508;13.236;2023-01-19T11:21:05;1.40;99.90
20827;DHT22;10574;52.508;13.236;2023-01-19T11:23:30;1.50;99.90
20827;DHT22;10574;52.508;13.236;2023-01-19T11:25:59;1.60;99.90
20827;DHT22;10574;52.508;13.236;2023-01-19T11:28:30;1.70;99.90
20827;DHT22;10574;52.508;13.236;2023-01-19T11:31:01;1.70;99.90
20827;DHT22;10574;52.508;13.236;2023-01-19T11:33:35;1.90;99.90
20827;DHT22;10574;52.508;13.236;2023-01-19T11:36:06;1.90;99.90
20827;DHT22;10574;52.508;13.236;2023-01-19T11:38:39;1.90;99.90
20827;DHT22;10574;52.508;13.236;2023-01-19T11:41:06;2.00;99.90
20827;DHT22;10574;52.508;13.236;2023-01-19T11:43:35;2.00;99.90
20827;DHT22;10574;52.508;13.236;2023-01-19T11:46:03;2.00;99.90
20827;DHT22;10574;52.508;13.236;2023-01-19T11:48:41;2.00;99.90
20827;DHT22;10574;52.508;13.236;2023-01-19T11:51:12;2.00;99.90
20827;DHT22;10574;52.508;13.236;2023-01-19T11:53:39;2.10;99.90
20827;DHT22;10574;52.508;13.236;2023-01-19T11:56:13;2.10;99.90
20827;DHT22;10574;52.508;13.236;2023-01-19T11:58:43;2.10;99.90
20827;DHT22;10574;52.508;13.236;2023-01-19T12:01:31;2.20;99.90
20827;DHT22;10574;52.508;13.236;2023-01-19T12:04:13;2.30;99.90
20827;DHT22;10574;52.508;13.236;2023-01-19T12:06:43;2.40;99.90
20827;DHT22;10574;52.508;13.236;2023-01-19T12:09:34;2.40;99.90
20827;DHT22;10574;52.508;13.236;2023-01-19T12:12:24;2.50;99.90
20827;DHT22;10574;52.508;13.236;2023-01-19T12:17:11;2.60;99.90
20827;DHT22;10574;52.508;13.236;2023-01-19T12:19:51;2.60;99.90
20827;DHT22;10574;52.508;13.236;2023-01-19T12:22:19;2.60;99.90
20827;DHT22;10574;52.508;13.236;2023-01-19T12:25:00;2.60;99.90
20827;DHT22;10574;52.508;13.236;2023-01-19T12:27:42;2.60;99.90
20827;DHT22;10574;52.508;13.236;2023-01-19T12:30:23;2.50;99.90
20827;DHT22;10574;52.508;13.236;2023-01-19T12:32:50;2.60;99.90
20827;DHT22;10574;52.508;13.236;2023-01-19T12:35:53;2.60;99.90
20827;DHT22;10574;52.508;13.236;2023-01-19T12:44:13;2.80;99.90
20827;DHT22;10574;52.508;13.236;2023-01-19T12:46:28;2.70;99.90
20827;DHT22;10574;52.508;13.236;2023-01-19T12:51:40;2.60;99.90
20827;DHT22;10574;52.508;13.236;2023-01-19T12:54:16;2.70;99.90
20827;DHT22;10574;52.508;13.236;2023-01-19T12:56:39;2.70;99.90
20827;DHT22;10574;52.508;13.236;2023-01-19T12:59:17;2.70;99.90
20827;DHT22;10574;52.508;13.236;2023-01-19T13:01:38;2.80;99.90
20827;DHT22;10574;52.508;13.236;2023-01-19T13:07:04;2.80;99.90
20827;DHT22;10574;52.508;13.236;2023-01-19T13:09:37;2.80;99.90
20827;DHT22;10574;52.508;13.236;2023-01-19T13:14:43;2.80;99.90
20827;DHT22;10574;52.508;13.236;2023-01-19T13:20:00;2.90;99.90
20827;DHT22;10574;52.508;13.236;2023-01-19T13:25:27;2.80;99.90
20827;DHT22;10574;52.508;13.236;2023-01-19T13:27:56;2.90;99.90
20827;DHT22;10574;52.508;13.236;2023-01-19T13:30:26;2.90;99.90
20827;DHT22;10574;52.508;13.236;2023-01-19T13:33:02;2.80;99.90
20827;DHT22;10574;52.508;13.236;2023-01-19T13:35:28;2.80;99.90
20827;DHT22;10574;52.508;13.236;2023-01-19T13:37:57;2.80;99.90
20827;DHT22;10574;52.508;13.236;2023-01-19T13:40:31;2.80;99.90
20827;DHT22;10574;52.508;13.236;2023-01-19T13:42:56;2.90;99.90
20827;DHT22;10574;52.508;13.236;2023-01-19T13:45:30;2.80;99.90
20827;DHT22;10574;52.508;13.236;2023-01-19T13:48:02;2.70;99.90
20827;DHT22;10574;52.508;13.236;2023-01-19T13:50:32;2.70;99.90
20827;DHT22;10574;52.508;13.236;2023-01-19T13:53:00;2.70;99.90
20827;DHT22;10574;52.508;13.236;2023-01-19T13:55:30;2.70;99.90
20827;DHT22;10574;52.508;13.236;2023-01-19T13:57:58;2.50;99.90
20827;DHT22;10574;52.508;13.236;2023-01-19T14:00:28;2.50;99.90
20827;DHT22;10574;52.508;13.236;2023-01-19T14:03:01;2.40;99.90
20827;DHT22;10574;52.508;13.236;2023-01-19T14:05:34;2.30;99.90
20827;DHT22;10574;52.508;13.236;2023-01-19T14:08:13;2.30;99.90
20827;DHT22;10574;52.508;13.236;2023-01-19T14:10:45;2.20;99.90
20827;DHT22;10574;52.508;13.236;2023-01-19T14:13:19;2.10;99.90
20827;DHT22;10574;52.508;13.236;2023-01-19T14:15:58;2.00;99.90
20827;DHT22;10574;52.508;13.236;2023-01-19T14:18:22;2.00;99.90
20827;DHT22;10574;52.508;13.236;2023-01-19T14:23:44;1.90;99.90
20827;DHT22;10574;52.508;13.236;2023-01-19T14:26:38;1.80;99.90
20827;DHT22;10574;52.508;13.236;2023-01-19T14:29:30;1.80;99.90
20827;DHT22;10574;52.508;13.236;2023-01-19T14:32:18;1.90;99.90
20827;DHT22;10574;52.508;13.236;2023-01-19T14:35:13;1.90;99.90
20827;DHT22;10574;52.508;13.236;2023-01-19T14:37:23;1.80;99.90
20827;DHT22;10574;52.508;13.236;2023-01-19T14:42:35;1.80;99.90
20827;DHT22;10574;52.508;13.236;2023-01-19T14:45:06;1.80;99.90
20827;DHT22;10574;52.508;13.236;2023-01-19T14:47:37;1.80;99.90
20827;DHT22;10574;52.508;13.236;2023-01-19T14:53:03;1.70;99.90
20827;DHT22;10574;52.508;13.236;2023-01-19T14:58:10;1.60;99.90
20827;DHT22;10574;52.508;13.236;2023-01-19T15:00:39;1.60;99.90
20827;DHT22;10574;52.508;13.236;2023-01-19T15:03:07;1.60;99.90
20827;DHT22;10574;52.508;13.236;2023-01-19T15:05:45;1.50;99.90
20827;DHT22;10574;52.508;13.236;2023-01-19T15:08:21;1.50;99.90
20827;DHT22;10574;52.508;13.236;2023-01-19T15:10:44;1.40;99.90
20827;DHT22;10574;52.508;13.236;2023-01-19T15:13:18;1.40;99.90
20827;DHT22;10574;52.508;13.236;2023-01-19T15:15:47;1.30;99.90
20827;DHT22;10574;52.508;13.236;2023-01-19T15:18:20;1.30;99.90
20827;DHT22;10574;52.508;13.236;2023-01-19T15:20:48;1.30;99.90
20827;DHT22;10574;52.508;13.236;2023-01-19T15:23:16;1.30;99.90
20827;DHT22;10574;52.508;13.236;2023-01-19T15:25:44;1.20;99.90
20827;DHT22;10574;52.508;13.236;2023-01-19T15:28:19;1.20;99.90
20827;DHT22;10574;52.508;13.236;2023-01-19T15:30:43;1.20;99.90
20827;DHT22;10574;52.508;13.236;2023-01-19T15:33:17;1.20;99.90
20827;DHT22;10574;52.508;13.236;2023-01-19T15:35:45;1.10;99.90
20827;DHT22;10574;52.508;13.236;2023-01-19T15:38:13;1.10;99.90
20827;DHT22;10574;52.508;13.236;2023-01-19T15:40:41;1.10;99.90
20827;DHT22;10574;52.508;13.236;2023-01-19T15:43:12;1.10;99.90
20827;DHT22;10574;52.508;13.236;2023-01-19T15:45:48;1.00;99.90
20827;DHT22;10574;52.508;13.236;2023-01-19T15:48:16;0.90;99.90
20827;DHT22;10574;52.508;13.236;2023-01-19T15:50:45;0.90;99.90
20827;DHT22;10574;52.508;13.236;2023-01-19T15:53:15;0.90;99.90
20827;DHT22;10574;52.508;13.236;2023-01-19T15:55:47;0.90;99.90
20827;DHT22;10574;52.508;13.236;2023-01-19T15:58:12;0.90;99.90
20827;DHT22;10574;52.508;13.236;2023-01-19T16:00:41;1.00;99.90
20827;DHT22;10574;52.508;13.236;2023-01-19T16:03:09;1.00;99.90
20827;DHT22;10574;52.508;13.236;2023-01-19T16:05:37;1.00;99.90
20827;DHT22;10574;52.508;13.236;2023-01-19T16:08:05;0.90;99.90
20827;DHT22;10574;52.508;13.236;2023-01-19T16:10:34;0.90;99.90
20827;DHT22;10574;52.508;13.236;2023-01-19T16:13:03;0.80;99.90
20827;DHT22;10574;52.508;13.236;2023-01-19T16:15:35;0.80;99.90
20827;DHT22;10574;52.508;13.236;2023-01-19T16:18:04;0.90;99.90
20827;DHT22;10574;52.508;13.236;2023-01-19T16:20:32;0.90;99.90
20827;DHT22;10574;52.508;13.236;2023-01-19T16:23:00;0.90;99.90
20827;DHT22;10574;52.508;13.236;2023-01-19T16:25:27;0.90;99.90
20827;DHT22;10574;52.508;13.236;2023-01-19T16:27:57;0.80;99.90
20827;DHT22;10574;52.508;13.236;2023-01-19T16:30:24;0.80;99.90
20827;DHT22;10574;52.508;13.236;2023-01-19T16:32:52;0.80;99.90
20827;DHT22;10574;52.508;13.236;2023-01-19T16:35:20;0.80;99.90
20827;DHT22;10574;52.508;13.236;2023-01-19T16:37:56;0.80;99.90
20827;DHT22;10574;52.508;13.236;2023-01-19T16:40:25;0.80;99.90